This is the latest recevied weather packets stored in our database for station/object HS5GDX-4. If no packets are shown the sender has not sent any weather packets the latest 10 day(s).
| Time | Temp. | Humidity | Pressure | Rain* | Wind** | Luminosity | Snow |
|---|---|---|---|---|---|---|---|
| 1777725787 | 36.67° C | 30% | 963 hPa | - | - | 0 W/m² | - |
| 1777724858 | 35.56° C | 32% | 962 hPa | - | - | 0 W/m² | - |
| 1777723930 | 35.56° C | 32% | 962 hPa | - | - | 0 W/m² | - |
| 1777723000 | 36.11° C | 31% | 962 hPa | - | - | 0 W/m² | - |
| 1777722073 | 36.67° C | 29% | 962 hPa | - | - | 0 W/m² | - |
| 1777721142 | 37.22° C | 26% | 961 hPa | - | - | 0 W/m² | - |
| 1777720217 | 37.78° C | 25% | 961 hPa | - | - | 0 W/m² | - |
| 1777719290 | 37.78° C | 25% | 961 hPa | - | - | 0 W/m² | - |
| 1777718365 | 38.33° C | 23% | 961 hPa | - | - | 0 W/m² | - |
| 1777717440 | 38.33° C | 23% | 961 hPa | - | - | 0 W/m² | - |
| 1777716513 | 38.89° C | 21% | 961 hPa | - | - | 0 W/m² | - |
| 1777715588 | 38.33° C | 22% | 961 hPa | - | - | 0 W/m² | - |
| 1777714663 | 38.89° C | 22% | 961 hPa | - | - | 0 W/m² | - |
| 1777713735 | 39.44° C | 24% | 961 hPa | - | - | 0 W/m² | - |
| 1777712805 | 39.44° C | 23% | 961 hPa | - | - | 0 W/m² | - |
| 1777711877 | 39.44° C | 25% | 961 hPa | - | - | 0 W/m² | - |
| 1777710948 | 39.44° C | 24% | 962 hPa | - | - | 0 W/m² | - |
| 1777710019 | 39.44° C | 24% | 962 hPa | - | - | 0 W/m² | - |
| 1777709092 | 39.44° C | 24% | 962 hPa | - | - | 0 W/m² | - |
| 1777708164 | 39.44° C | 25% | 962 hPa | - | - | 0 W/m² | - |
| 1777707235 | 38.89° C | 26% | 962 hPa | - | - | 0 W/m² | - |
| 1777706308 | 39.44° C | 26% | 963 hPa | - | - | 0 W/m² | - |
| 1777706244 | 39.44° C | 26% | 963 hPa | - | - | 0 W/m² | - |
| 1777705315 | 38.33° C | 27% | 963 hPa | - | - | 0 W/m² | - |
| 1777704387 | 38.33° C | 29% | 964 hPa | - | - | 0 W/m² | - |
* Rain since midnight (hover to see other rain measurements)
** Current wind speed in m/s (hover to see current wind gust speed)